createdAt,value
2023-02-12T19:27:28.090Z,8.40
2023-02-12T19:29:57.798Z,8.30
2023-02-12T19:32:26.685Z,8.00
2023-02-12T19:34:55.785Z,7.00
2023-02-12T19:37:24.785Z,6.10
2023-02-12T19:39:53.779Z,8.00
2023-02-12T19:42:22.798Z,6.40
2023-02-12T19:44:51.655Z,6.80
2023-02-12T19:47:21.087Z,8.40
2023-02-12T19:49:49.923Z,10.70
2023-02-12T19:52:18.852Z,14.00
2023-02-12T19:54:48.145Z,8.80
2023-02-12T19:57:17.019Z,11.90
2023-02-12T19:59:46.688Z,10.70
2023-02-12T20:02:15.482Z,9.60
2023-02-12T20:04:44.214Z,9.90
2023-02-12T20:07:13.205Z,11.10
2023-02-12T20:09:42.007Z,6.80
2023-02-12T20:12:10.863Z,9.10
2023-02-12T20:14:39.652Z,8.70
2023-02-12T20:17:08.440Z,7.10
2023-02-12T20:19:37.335Z,12.00
2023-02-12T20:22:06.178Z,6.90
2023-02-12T20:24:35.347Z,8.40
2023-02-12T20:27:04.762Z,8.10
2023-02-12T20:29:33.595Z,8.30
2023-02-12T20:32:02.505Z,8.20
2023-02-12T20:34:36.677Z,10.30
2023-02-12T20:37:11.753Z,8.10
2023-02-12T20:39:40.482Z,7.60
2023-02-12T20:42:09.251Z,10.60
2023-02-12T20:44:38.483Z,8.70
2023-02-12T20:47:07.237Z,7.50
2023-02-12T20:49:36.158Z,7.70
2023-02-12T20:52:05.358Z,6.00
2023-02-12T20:54:34.121Z,8.80
2023-02-12T20:57:06.850Z,7.60
2023-02-12T20:59:35.863Z,8.00
2023-02-12T21:02:04.933Z,7.90
2023-02-12T21:04:34.373Z,6.70
2023-02-12T21:07:03.271Z,7.10
2023-02-12T21:09:32.144Z,7.20
2023-02-12T21:12:00.851Z,7.60
2023-02-12T21:14:29.682Z,5.80
2023-02-12T21:16:58.433Z,8.80
2023-02-12T21:19:27.559Z,5.50
2023-02-12T21:21:56.330Z,5.10
2023-02-12T21:24:26.273Z,7.40
2023-02-12T21:26:55.907Z,6.50
2023-02-12T21:29:27.727Z,5.70
2023-02-12T21:31:56.645Z,5.50
2023-02-12T21:34:25.591Z,6.50
2023-02-12T21:36:56.384Z,7.40
2023-02-12T21:39:28.637Z,7.70
2023-02-12T21:42:02.618Z,7.60
2023-02-12T21:44:35.554Z,7.70
2023-02-12T21:47:05.510Z,7.60
2023-02-12T21:49:34.426Z,7.20
2023-02-12T21:52:06.882Z,6.10
2023-02-12T21:54:35.767Z,7.40
2023-02-12T21:57:04.528Z,7.10
2023-02-12T21:59:33.347Z,7.90
2023-02-12T22:02:02.257Z,9.10
2023-02-12T22:04:31.036Z,8.70
2023-02-12T22:07:03.468Z,8.50
2023-02-12T22:09:32.536Z,9.00
2023-02-12T22:12:01.265Z,10.10
2023-02-12T22:14:30.217Z,10.20
2023-02-12T22:16:59.560Z,11.80
2023-02-12T22:19:28.327Z,8.60
2023-02-12T22:21:57.052Z,9.50
2023-02-12T22:24:25.776Z,12.90
2023-02-12T22:26:55.378Z,8.20
2023-02-12T22:29:24.280Z,8.70
2023-02-12T22:31:53.093Z,10.20
2023-02-12T22:34:21.869Z,10.70
2023-02-12T22:36:50.637Z,8.70
2023-02-12T22:39:19.444Z,12.00
2023-02-12T22:41:48.324Z,9.90
2023-02-12T22:44:18.926Z,7.80
2023-02-12T22:46:50.517Z,8.00
2023-02-12T22:49:19.504Z,12.90
2023-02-12T22:51:48.300Z,10.60
2023-02-12T22:54:19.175Z,8.00
2023-02-12T22:56:52.236Z,9.40
2023-02-12T22:59:21.017Z,10.80
2023-02-12T23:01:49.838Z,10.30
2023-02-12T23:04:19.420Z,9.10
2023-02-12T23:06:48.533Z,15.00
2023-02-12T23:09:19.325Z,11.80
2023-02-12T23:11:48.889Z,14.10
2023-02-12T23:14:18.334Z,14.90
2023-02-12T23:16:47.700Z,13.60
2023-02-12T23:19:16.727Z,16.80
2023-02-12T23:21:45.502Z,13.70
2023-02-12T23:24:15.257Z,15.70
2023-02-12T23:26:44.998Z,12.90
2023-02-12T23:29:14.358Z,14.40
2023-02-12T23:31:43.288Z,11.90
2023-02-12T23:34:12.131Z,11.30
2023-02-12T23:36:40.907Z,9.20
2023-02-12T23:39:12.771Z,4.50
2023-02-12T23:41:41.482Z,9.10
2023-02-12T23:44:10.752Z,6.10
2023-02-12T23:46:39.516Z,11.30
2023-02-12T23:49:08.557Z,11.00
2023-02-12T23:51:37.320Z,11.20
2023-02-12T23:54:06.182Z,19.50
2023-02-12T23:56:34.868Z,16.50
2023-02-12T23:59:03.660Z,17.20
